Friday, October 24, 2014
23:13 UTC
  |  Log In   |  Register Free
Airport Search:

Norwood Memorial Airport
(KOWD)

FAA data valid effective September 18, 2014 - November 13, 2014 (unless otherwise noted).

 
 
 
 
 
 
 
 
 
 
 
 
 
 

Current Aviation Weather for Norwood Memorial Airport (KOWD)

The most recent METAR observation for KOWD was updated at: 2216
METAR Summary (Translated METAR)
KOWD
242153Z 28005KT 10SM BKN027 OVC032 11/07 A2971 RMK AO2 SLP060 T01110067
KBOS
242254Z 31007KT 10SM FEW016 BKN029 OVC050 11/06 A2972 RMK AO2 SLP064 T01060061
(12.7 nm NE from KOWD)
KBED
242256Z 28007KT 10SM OVC026 10/06 A2972 RMK AO2 SLP076 T01000061
(17.6 nm NW from KOWD)
TAF Summary (Translated TAF)
KBOS
(12.7 nm NE from KOWD)
242028Z 2420/2524 32010KT P6SM OVC025 FM250300 31008KT P6SM BKN040 FM250900 29006KT P6SM SCT110 FM251900 25008KT P6SM FEW200
KBED
(17.6 nm NW from KOWD)
241732Z 2418/2518 33009KT P6SM OVC020 FM242100 32008KT P6SM OVC030 FM250100 32006KT P6SM BKN035 FM250700 30004KT P6SM SCT100
  Airport Weather Conditions for KOWD

 Current Weather at OWD
52° F
Overcast
West winds at 5.8 mph
OWD NOAA Radar

Pressure: 29.71 in
Humidity: 75%
Wind: West at 5.8 MPH (5 KT)
Dew Point: 44.1°F
Visibility: 10.00 mi


Airport Weather Forecast for KOWD

Translated METAR and TAF for KOWD
Translated METAR for KOWD (2308 UTC 24 October 2014)
found at http://aviationweather.gov/adds/metars/
 
METAR text: KOWD 242253Z 29008KT 10SM OVC028 11/06 A2972 RMK AO2 SLP063 T01060061
Conditions at: KOWD (NORWOOD , MA, US) observed 2253 UTC 24 October 2014
Temperature: 10.6°C (51°F)
Dewpoint: 6.1°C (43°F) [RH = 74%]
Pressure (altimeter): 29.72 inches Hg (1006.5 mb)
[Sea-level pressure: 1006.3 mb]
Winds: from the WNW (290 degrees) at 9 MPH (8 knots; 4.2 m/s)
Visibility: 10 or more miles (16+ km)
Ceiling: 2800 feet AGL
Clouds: overcast cloud deck at 2800 feet AGL
Weather: no significant weather observed at this time
Translated TAF for KOWD

There is no translated TAF available for this airport

Find All Airport Services Find A Hotel Find A Rental Car Find A Golf Course Find A Restaurant $100 Hamburger



FBO's on the Field
FBO Company Facility Photos Services Transportation Aviation Fuel Prices: Prices include tax
Catering Weather Repair Courtesy Rental Type 100LL JetA JetA+ MOGAS 8087
 
FlightLevel Aviation

Currently rated 2.7 by 2 people
FS:Shell
Last Updated: Oct-22
Login to update fuel prices
SS:
Contact FlightLevel AviationMore FBO Information
 
Add another FBO Facility Photos Catering Weather Repair Courtesy Rental Type 100LL JetA JetA+ MOGAS 8087
Services Transportation Aviation Fuel Prices: Prices include tax


model-print
model-print
model-print
model-print